sensor_id;sensor_type;location;lat;lon;timestamp;temperature;humidity
6210;DHT22;3138;52.550;13.148;2022-10-26T00:01:02;5.70;99.90
6210;DHT22;3138;52.550;13.148;2022-10-26T00:03:29;5.70;99.90
6210;DHT22;3138;52.550;13.148;2022-10-26T00:06:02;5.70;99.90
6210;DHT22;3138;52.550;13.148;2022-10-26T00:08:29;5.60;99.90
6210;DHT22;3138;52.550;13.148;2022-10-26T00:10:56;5.60;99.90
6210;DHT22;3138;52.550;13.148;2022-10-26T00:13:23;5.60;99.90
6210;DHT22;3138;52.550;13.148;2022-10-26T00:15:50;5.70;99.90
6210;DHT22;3138;52.550;13.148;2022-10-26T00:18:18;5.70;99.90
6210;DHT22;3138;52.550;13.148;2022-10-26T00:20:45;5.70;99.90
6210;DHT22;3138;52.550;13.148;2022-10-26T00:23:11;5.70;99.90
6210;DHT22;3138;52.550;13.148;2022-10-26T00:25:38;5.70;99.90
6210;DHT22;3138;52.550;13.148;2022-10-26T00:28:05;5.70;99.90
6210;DHT22;3138;52.550;13.148;2022-10-26T00:30:31;5.70;99.90
6210;DHT22;3138;52.550;13.148;2022-10-26T00:32:58;5.60;99.90
6210;DHT22;3138;52.550;13.148;2022-10-26T00:35:26;5.60;99.90
6210;DHT22;3138;52.550;13.148;2022-10-26T00:37:53;5.60;99.90
6210;DHT22;3138;52.550;13.148;2022-10-26T00:40:20;5.70;99.90
6210;DHT22;3138;52.550;13.148;2022-10-26T00:42:47;5.60;99.90
6210;DHT22;3138;52.550;13.148;2022-10-26T00:45:22;5.60;99.90
6210;DHT22;3138;52.550;13.148;2022-10-26T00:47:52;5.60;99.90
6210;DHT22;3138;52.550;13.148;2022-10-26T00:50:26;5.60;99.90
6210;DHT22;3138;52.550;13.148;2022-10-26T00:52:57;5.50;99.90
6210;DHT22;3138;52.550;13.148;2022-10-26T00:55:27;5.50;99.90
6210;DHT22;3138;52.550;13.148;2022-10-26T00:57:55;5.50;99.90
6210;DHT22;3138;52.550;13.148;2022-10-26T01:00:21;5.50;99.90
6210;DHT22;3138;52.550;13.148;2022-10-26T01:02:50;5.50;99.90
6210;DHT22;3138;52.550;13.148;2022-10-26T01:05:18;5.40;99.90
6210;DHT22;3138;52.550;13.148;2022-10-26T01:07:46;5.50;99.90
6210;DHT22;3138;52.550;13.148;2022-10-26T01:10:14;5.50;99.90
6210;DHT22;3138;52.550;13.148;2022-10-26T01:12:41;5.50;99.90
6210;DHT22;3138;52.550;13.148;2022-10-26T01:15:08;5.50;99.90
6210;DHT22;3138;52.550;13.148;2022-10-26T01:17:45;5.30;99.90
6210;DHT22;3138;52.550;13.148;2022-10-26T01:20:28;5.40;99.90
6210;DHT22;3138;52.550;13.148;2022-10-26T01:23:02;5.50;99.90
6210;DHT22;3138;52.550;13.148;2022-10-26T01:25:40;5.50;99.90
6210;DHT22;3138;52.550;13.148;2022-10-26T01:28:24;5.40;99.90
6210;DHT22;3138;52.550;13.148;2022-10-26T01:31:02;5.40;99.90
6210;DHT22;3138;52.550;13.148;2022-10-26T01:33:34;5.30;99.90
6210;DHT22;3138;52.550;13.148;2022-10-26T01:36:09;5.30;99.90
6210;DHT22;3138;52.550;13.148;2022-10-26T01:38:43;5.30;99.90
6210;DHT22;3138;52.550;13.148;2022-10-26T01:41:17;5.20;99.90
6210;DHT22;3138;52.550;13.148;2022-10-26T01:43:49;5.30;99.90
6210;DHT22;3138;52.550;13.148;2022-10-26T01:46:20;5.20;99.90
6210;DHT22;3138;52.550;13.148;2022-10-26T01:48:51;5.20;99.90
6210;DHT22;3138;52.550;13.148;2022-10-26T01:51:20;5.20;99.90
6210;DHT22;3138;52.550;13.148;2022-10-26T01:53:47;5.10;99.90
6210;DHT22;3138;52.550;13.148;2022-10-26T01:56:18;5.10;99.90
6210;DHT22;3138;52.550;13.148;2022-10-26T01:59:12;5.00;99.90
6210;DHT22;3138;52.550;13.148;2022-10-26T02:04:45;5.10;99.90
6210;DHT22;3138;52.550;13.148;2022-10-26T02:07:20;5.20;99.90
6210;DHT22;3138;52.550;13.148;2022-10-26T02:09:58;5.10;99.90
6210;DHT22;3138;52.550;13.148;2022-10-26T02:12:32;5.00;99.90
6210;DHT22;3138;52.550;13.148;2022-10-26T02:15:06;5.00;99.90
6210;DHT22;3138;52.550;13.148;2022-10-26T02:17:42;5.00;99.90
6210;DHT22;3138;52.550;13.148;2022-10-26T02:20:16;5.10;99.90
6210;DHT22;3138;52.550;13.148;2022-10-26T02:22:47;5.30;99.90
6210;DHT22;3138;52.550;13.148;2022-10-26T02:25:19;5.20;99.90
6210;DHT22;3138;52.550;13.148;2022-10-26T02:27:50;5.10;99.90
6210;DHT22;3138;52.550;13.148;2022-10-26T02:30:18;5.00;99.90
6210;DHT22;3138;52.550;13.148;2022-10-26T02:32:49;4.90;99.90
6210;DHT22;3138;52.550;13.148;2022-10-26T02:35:19;4.90;99.90
6210;DHT22;3138;52.550;13.148;2022-10-26T02:37:47;4.90;99.90
6210;DHT22;3138;52.550;13.148;2022-10-26T02:40:19;4.80;99.90
6210;DHT22;3138;52.550;13.148;2022-10-26T02:42:47;4.80;99.90
6210;DHT22;3138;52.550;13.148;2022-10-26T02:45:17;4.70;99.90
6210;DHT22;3138;52.550;13.148;2022-10-26T02:47:48;4.80;99.90
6210;DHT22;3138;52.550;13.148;2022-10-26T02:50:15;4.70;99.90
6210;DHT22;3138;52.550;13.148;2022-10-26T02:52:46;4.80;99.90
6210;DHT22;3138;52.550;13.148;2022-10-26T02:55:17;4.70;99.90
6210;DHT22;3138;52.550;13.148;2022-10-26T02:57:48;4.60;99.90
6210;DHT22;3138;52.550;13.148;2022-10-26T03:00:17;4.60;99.90
6210;DHT22;3138;52.550;13.148;2022-10-26T03:02:50;4.60;99.90
6210;DHT22;3138;52.550;13.148;2022-10-26T03:05:20;4.70;99.90
6210;DHT22;3138;52.550;13.148;2022-10-26T03:07:47;4.70;99.90
6210;DHT22;3138;52.550;13.148;2022-10-26T03:10:14;4.90;99.90
6210;DHT22;3138;52.550;13.148;2022-10-26T03:12:41;4.80;99.90
6210;DHT22;3138;52.550;13.148;2022-10-26T03:15:08;4.80;99.90
6210;DHT22;3138;52.550;13.148;2022-10-26T03:17:35;4.80;99.90
6210;DHT22;3138;52.550;13.148;2022-10-26T03:20:04;5.00;99.90
6210;DHT22;3138;52.550;13.148;2022-10-26T03:22:31;4.90;99.90
6210;DHT22;3138;52.550;13.148;2022-10-26T03:24:58;4.80;99.90
6210;DHT22;3138;52.550;13.148;2022-10-26T03:27:24;4.80;99.90
6210;DHT22;3138;52.550;13.148;2022-10-26T03:29:51;4.80;99.90
6210;DHT22;3138;52.550;13.148;2022-10-26T03:32:18;4.80;99.90
6210;DHT22;3138;52.550;13.148;2022-10-26T03:34:45;4.70;99.90
6210;DHT22;3138;52.550;13.148;2022-10-26T03:37:13;4.60;99.90
6210;DHT22;3138;52.550;13.148;2022-10-26T03:39:39;4.60;99.90
6210;DHT22;3138;52.550;13.148;2022-10-26T03:42:06;4.60;99.90
6210;DHT22;3138;52.550;13.148;2022-10-26T03:44:33;4.70;99.90
6210;DHT22;3138;52.550;13.148;2022-10-26T03:46:59;4.60;99.90
6210;DHT22;3138;52.550;13.148;2022-10-26T03:49:26;4.60;99.90
6210;DHT22;3138;52.550;13.148;2022-10-26T03:51:53;4.40;99.90
6210;DHT22;3138;52.550;13.148;2022-10-26T03:54:21;4.50;99.90
6210;DHT22;3138;52.550;13.148;2022-10-26T03:56:47;4.60;99.90
6210;DHT22;3138;52.550;13.148;2022-10-26T03:59:14;4.50;99.90
6210;DHT22;3138;52.550;13.148;2022-10-26T04:01:41;4.50;99.90
6210;DHT22;3138;52.550;13.148;2022-10-26T04:04:07;4.50;99.90
6210;DHT22;3138;52.550;13.148;2022-10-26T04:06:34;4.50;99.90
6210;DHT22;3138;52.550;13.148;2022-10-26T04:09:01;4.40;99.90
6210;DHT22;3138;52.550;13.148;2022-10-26T04:11:29;4.60;99.90
6210;DHT22;3138;52.550;13.148;2022-10-26T04:13:56;4.50;99.90
6210;DHT22;3138;52.550;13.148;2022-10-26T04:16:24;4.50;99.90
6210;DHT22;3138;52.550;13.148;2022-10-26T04:18:50;4.60;99.90
6210;DHT22;3138;52.550;13.148;2022-10-26T04:21:17;4.70;99.90
6210;DHT22;3138;52.550;13.148;2022-10-26T04:23:44;4.70;99.90
6210;DHT22;3138;52.550;13.148;2022-10-26T04:26:10;4.70;99.90
6210;DHT22;3138;52.550;13.148;2022-10-26T04:28:38;4.70;99.90
6210;DHT22;3138;52.550;13.148;2022-10-26T04:31:05;4.80;99.90
6210;DHT22;3138;52.550;13.148;2022-10-26T04:33:32;4.80;99.90
6210;DHT22;3138;52.550;13.148;2022-10-26T04:35:58;4.90;99.90
6210;DHT22;3138;52.550;13.148;2022-10-26T04:38:26;4.90;99.90
6210;DHT22;3138;52.550;13.148;2022-10-26T04:40:52;4.80;99.90
6210;DHT22;3138;52.550;13.148;2022-10-26T04:43:19;4.70;99.90
6210;DHT22;3138;52.550;13.148;2022-10-26T04:45:47;4.70;99.90
6210;DHT22;3138;52.550;13.148;2022-10-26T04:48:14;4.60;99.90
6210;DHT22;3138;52.550;13.148;2022-10-26T04:50:41;4.70;99.90
6210;DHT22;3138;52.550;13.148;2022-10-26T04:53:08;4.60;99.90
6210;DHT22;3138;52.550;13.148;2022-10-26T04:55:35;4.50;99.90
6210;DHT22;3138;52.550;13.148;2022-10-26T04:58:05;4.60;99.90
6210;DHT22;3138;52.550;13.148;2022-10-26T05:00:33;4.70;99.90
6210;DHT22;3138;52.550;13.148;2022-10-26T05:03:02;4.50;99.90
6210;DHT22;3138;52.550;13.148;2022-10-26T05:05:30;4.50;99.90
6210;DHT22;3138;52.550;13.148;2022-10-26T05:07:57;4.50;99.90
6210;DHT22;3138;52.550;13.148;2022-10-26T05:10:24;4.50;99.90
6210;DHT22;3138;52.550;13.148;2022-10-26T05:12:52;4.50;99.90
6210;DHT22;3138;52.550;13.148;2022-10-26T05:15:19;4.40;99.90
6210;DHT22;3138;52.550;13.148;2022-10-26T05:17:46;4.40;99.90
6210;DHT22;3138;52.550;13.148;2022-10-26T05:20:14;4.50;99.90
6210;DHT22;3138;52.550;13.148;2022-10-26T05:22:41;4.50;99.90
6210;DHT22;3138;52.550;13.148;2022-10-26T05:25:08;4.50;99.90
6210;DHT22;3138;52.550;13.148;2022-10-26T05:27:35;4.40;99.90
6210;DHT22;3138;52.550;13.148;2022-10-26T05:30:01;4.50;99.90
6210;DHT22;3138;52.550;13.148;2022-10-26T05:32:28;4.40;99.90
6210;DHT22;3138;52.550;13.148;2022-10-26T05:34:55;4.40;99.90
6210;DHT22;3138;52.550;13.148;2022-10-26T05:37:23;4.40;99.90
6210;DHT22;3138;52.550;13.148;2022-10-26T05:39:49;4.40;99.90
6210;DHT22;3138;52.550;13.148;2022-10-26T05:42:16;4.30;99.90
6210;DHT22;3138;52.550;13.148;2022-10-26T05:44:43;4.40;99.90
6210;DHT22;3138;52.550;13.148;2022-10-26T05:47:09;4.30;99.90
6210;DHT22;3138;52.550;13.148;2022-10-26T05:49:36;4.30;99.90
6210;DHT22;3138;52.550;13.148;2022-10-26T05:52:03;4.40;99.90
6210;DHT22;3138;52.550;13.148;2022-10-26T05:54:31;4.40;99.90
6210;DHT22;3138;52.550;13.148;2022-10-26T05:56:58;4.30;99.90
6210;DHT22;3138;52.550;13.148;2022-10-26T05:59:25;4.40;99.90
6210;DHT22;3138;52.550;13.148;2022-10-26T06:02:00;4.40;99.90
6210;DHT22;3138;52.550;13.148;2022-10-26T06:04:35;4.50;99.90
6210;DHT22;3138;52.550;13.148;2022-10-26T06:07:07;4.60;99.90
6210;DHT22;3138;52.550;13.148;2022-10-26T06:09:37;4.60;99.90
6210;DHT22;3138;52.550;13.148;2022-10-26T06:12:05;4.80;99.90
6210;DHT22;3138;52.550;13.148;2022-10-26T06:14:33;4.80;99.90
6210;DHT22;3138;52.550;13.148;2022-10-26T06:17:09;4.80;99.90
6210;DHT22;3138;52.550;13.148;2022-10-26T06:19:57;4.80;99.90
6210;DHT22;3138;52.550;13.148;2022-10-26T06:22:38;4.90;99.90
6210;DHT22;3138;52.550;13.148;2022-10-26T06:25:16;4.90;99.90
6210;DHT22;3138;52.550;13.148;2022-10-26T06:27:51;4.90;99.90
6210;DHT22;3138;52.550;13.148;2022-10-26T06:30:21;5.00;99.90
6210;DHT22;3138;52.550;13.148;2022-10-26T06:32:49;5.00;99.90
6210;DHT22;3138;52.550;13.148;2022-10-26T06:35:24;5.10;99.90
6210;DHT22;3138;52.550;13.148;2022-10-26T06:37:53;5.20;99.90
6210;DHT22;3138;52.550;13.148;2022-10-26T06:40:22;5.30;99.90
6210;DHT22;3138;52.550;13.148;2022-10-26T06:42:49;5.40;99.90
6210;DHT22;3138;52.550;13.148;2022-10-26T06:45:17;5.40;99.90
6210;DHT22;3138;52.550;13.148;2022-10-26T06:47:48;5.70;99.90
6210;DHT22;3138;52.550;13.148;2022-10-26T06:50:27;6.00;99.90
6210;DHT22;3138;52.550;13.148;2022-10-26T06:53:09;6.10;99.90
6210;DHT22;3138;52.550;13.148;2022-10-26T06:55:42;6.40;99.90
6210;DHT22;3138;52.550;13.148;2022-10-26T06:58:12;6.50;99.90
6210;DHT22;3138;52.550;13.148;2022-10-26T07:00:40;6.70;99.90
6210;DHT22;3138;52.550;13.148;2022-10-26T07:03:07;6.80;99.90
6210;DHT22;3138;52.550;13.148;2022-10-26T07:05:34;7.10;99.90
6210;DHT22;3138;52.550;13.148;2022-10-26T07:08:01;7.20;99.90
6210;DHT22;3138;52.550;13.148;2022-10-26T07:10:28;7.40;99.90
6210;DHT22;3138;52.550;13.148;2022-10-26T07:12:56;7.50;99.90
6210;DHT22;3138;52.550;13.148;2022-10-26T07:15:23;7.80;99.90
6210;DHT22;3138;52.550;13.148;2022-10-26T07:17:49;8.00;99.90
6210;DHT22;3138;52.550;13.148;2022-10-26T07:20:18;8.10;99.90
6210;DHT22;3138;52.550;13.148;2022-10-26T07:22:50;8.30;99.90
6210;DHT22;3138;52.550;13.148;2022-10-26T07:25:17;8.50;99.90
6210;DHT22;3138;52.550;13.148;2022-10-26T07:27:44;8.70;99.90
6210;DHT22;3138;52.550;13.148;2022-10-26T07:30:12;8.90;99.90
6210;DHT22;3138;52.550;13.148;2022-10-26T07:32:39;8.90;99.90
6210;DHT22;3138;52.550;13.148;2022-10-26T07:35:06;9.00;99.90
6210;DHT22;3138;52.550;13.148;2022-10-26T07:37:33;9.20;99.90
6210;DHT22;3138;52.550;13.148;2022-10-26T07:40:00;9.20;99.90
6210;DHT22;3138;52.550;13.148;2022-10-26T07:42:27;9.40;99.90
6210;DHT22;3138;52.550;13.148;2022-10-26T07:44:54;9.50;99.90
6210;DHT22;3138;52.550;13.148;2022-10-26T07:47:22;9.60;99.90
6210;DHT22;3138;52.550;13.148;2022-10-26T07:49:48;9.80;99.90
6210;DHT22;3138;52.550;13.148;2022-10-26T07:52:15;9.90;99.90
6210;DHT22;3138;52.550;13.148;2022-10-26T07:54:42;10.00;99.90
6210;DHT22;3138;52.550;13.148;2022-10-26T07:57:08;10.00;99.90
6210;DHT22;3138;52.550;13.148;2022-10-26T07:59:39;10.10;99.90
6210;DHT22;3138;52.550;13.148;2022-10-26T08:02:08;10.20;99.90
6210;DHT22;3138;52.550;13.148;2022-10-26T08:04:36;10.40;99.90
6210;DHT22;3138;52.550;13.148;2022-10-26T08:07:02;10.50;99.90
6210;DHT22;3138;52.550;13.148;2022-10-26T08:09:29;10.50;99.90
6210;DHT22;3138;52.550;13.148;2022-10-26T08:11:56;10.60;99.90
6210;DHT22;3138;52.550;13.148;2022-10-26T08:14:22;10.70;99.90
6210;DHT22;3138;52.550;13.148;2022-10-26T08:16:49;10.80;99.90
6210;DHT22;3138;52.550;13.148;2022-10-26T08:19:16;10.90;99.90
6210;DHT22;3138;52.550;13.148;2022-10-26T08:21:44;11.00;99.90
6210;DHT22;3138;52.550;13.148;2022-10-26T08:24:11;11.10;99.90
6210;DHT22;3138;52.550;13.148;2022-10-26T08:26:38;11.30;99.90
6210;DHT22;3138;52.550;13.148;2022-10-26T08:29:05;11.30;99.90
6210;DHT22;3138;52.550;13.148;2022-10-26T08:31:31;11.40;99.90
6210;DHT22;3138;52.550;13.148;2022-10-26T08:33:58;11.50;99.90
6210;DHT22;3138;52.550;13.148;2022-10-26T08:36:27;11.50;99.90
6210;DHT22;3138;52.550;13.148;2022-10-26T08:38:55;11.60;99.90
6210;DHT22;3138;52.550;13.148;2022-10-26T08:41:29;11.60;99.90
6210;DHT22;3138;52.550;13.148;2022-10-26T08:44:02;11.70;99.90
6210;DHT22;3138;52.550;13.148;2022-10-26T08:46:35;11.90;99.90
6210;DHT22;3138;52.550;13.148;2022-10-26T08:49:15;11.90;99.90
6210;DHT22;3138;52.550;13.148;2022-10-26T08:51:45;12.00;99.90
6210;DHT22;3138;52.550;13.148;2022-10-26T08:54:17;12.00;99.90
6210;DHT22;3138;52.550;13.148;2022-10-26T08:56:48;12.20;99.90
6210;DHT22;3138;52.550;13.148;2022-10-26T08:59:22;12.20;99.90
6210;DHT22;3138;52.550;13.148;2022-10-26T09:01:51;12.10;99.90
6210;DHT22;3138;52.550;13.148;2022-10-26T09:04:19;12.20;99.90
6210;DHT22;3138;52.550;13.148;2022-10-26T09:06:52;12.30;99.90
6210;DHT22;3138;52.550;13.148;2022-10-26T09:09:29;12.50;99.90
6210;DHT22;3138;52.550;13.148;2022-10-26T09:12:04;12.60;99.90
6210;DHT22;3138;52.550;13.148;2022-10-26T09:14:38;12.60;99.90
6210;DHT22;3138;52.550;13.148;2022-10-26T09:17:14;12.70;99.90
6210;DHT22;3138;52.550;13.148;2022-10-26T09:20:01;12.70;99.90
6210;DHT22;3138;52.550;13.148;2022-10-26T09:22:34;12.90;99.90
6210;DHT22;3138;52.550;13.148;2022-10-26T09:25:14;13.00;99.90
6210;DHT22;3138;52.550;13.148;2022-10-26T09:27:43;13.00;99.90
6210;DHT22;3138;52.550;13.148;2022-10-26T09:30:13;13.00;99.90
6210;DHT22;3138;52.550;13.148;2022-10-26T09:32:44;13.20;99.90
6210;DHT22;3138;52.550;13.148;2022-10-26T09:35:14;13.30;99.90
6210;DHT22;3138;52.550;13.148;2022-10-26T09:37:46;13.30;99.90
6210;DHT22;3138;52.550;13.148;2022-10-26T09:40:20;13.40;99.90
6210;DHT22;3138;52.550;13.148;2022-10-26T09:42:52;13.50;99.90
6210;DHT22;3138;52.550;13.148;2022-10-26T09:45:27;13.60;99.90
6210;DHT22;3138;52.550;13.148;2022-10-26T09:47:58;13.60;99.90
6210;DHT22;3138;52.550;13.148;2022-10-26T09:50:29;13.70;99.90
6210;DHT22;3138;52.550;13.148;2022-10-26T09:52:57;13.80;99.90
6210;DHT22;3138;52.550;13.148;2022-10-26T09:55:25;13.80;99.90
6210;DHT22;3138;52.550;13.148;2022-10-26T09:57:55;13.90;99.90
6210;DHT22;3138;52.550;13.148;2022-10-26T10:00:24;14.00;99.90
6210;DHT22;3138;52.550;13.148;2022-10-26T10:02:52;14.10;99.90
6210;DHT22;3138;52.550;13.148;2022-10-26T10:05:25;14.20;99.90
6210;DHT22;3138;52.550;13.148;2022-10-26T10:08:13;14.20;99.90
6210;DHT22;3138;52.550;13.148;2022-10-26T10:10:56;14.30;99.90
6210;DHT22;3138;52.550;13.148;2022-10-26T10:13:25;14.40;99.90
6210;DHT22;3138;52.550;13.148;2022-10-26T10:15:53;14.50;99.90
6210;DHT22;3138;52.550;13.148;2022-10-26T10:18:21;14.60;99.90
6210;DHT22;3138;52.550;13.148;2022-10-26T10:20:51;14.70;99.90
6210;DHT22;3138;52.550;13.148;2022-10-26T10:23:29;14.80;99.90
6210;DHT22;3138;52.550;13.148;2022-10-26T10:26:06;14.80;99.90
6210;DHT22;3138;52.550;13.148;2022-10-26T10:28:35;14.80;99.90
6210;DHT22;3138;52.550;13.148;2022-10-26T10:31:04;15.00;99.90
6210;DHT22;3138;52.550;13.148;2022-10-26T10:33:37;15.10;99.90
6210;DHT22;3138;52.550;13.148;2022-10-26T10:36:08;15.20;99.90
6210;DHT22;3138;52.550;13.148;2022-10-26T10:38:40;15.20;99.90
6210;DHT22;3138;52.550;13.148;2022-10-26T10:41:19;15.20;99.90
6210;DHT22;3138;52.550;13.148;2022-10-26T10:43:48;15.30;99.90
6210;DHT22;3138;52.550;13.148;2022-10-26T10:46:19;15.30;99.90
6210;DHT22;3138;52.550;13.148;2022-10-26T10:48:51;15.30;99.90
6210;DHT22;3138;52.550;13.148;2022-10-26T10:51:20;15.40;99.90
6210;DHT22;3138;52.550;13.148;2022-10-26T10:53:49;15.40;99.90
6210;DHT22;3138;52.550;13.148;2022-10-26T10:56:29;15.50;99.90
6210;DHT22;3138;52.550;13.148;2022-10-26T11:01:53;15.50;99.90
6210;DHT22;3138;52.550;13.148;2022-10-26T11:04:46;15.60;99.90
6210;DHT22;3138;52.550;13.148;2022-10-26T11:07:19;15.80;99.90
6210;DHT22;3138;52.550;13.148;2022-10-26T11:09:48;15.80;99.90
6210;DHT22;3138;52.550;13.148;2022-10-26T11:12:20;15.70;99.90
6210;DHT22;3138;52.550;13.148;2022-10-26T11:14:52;15.90;99.90
6210;DHT22;3138;52.550;13.148;2022-10-26T11:17:21;16.00;99.90
6210;DHT22;3138;52.550;13.148;2022-10-26T11:19:54;16.00;99.90
6210;DHT22;3138;52.550;13.148;2022-10-26T11:22:25;16.10;99.90
6210;DHT22;3138;52.550;13.148;2022-10-26T11:24:57;16.10;99.90
6210;DHT22;3138;52.550;13.148;2022-10-26T11:27:29;16.20;99.90
6210;DHT22;3138;52.550;13.148;2022-10-26T11:30:02;16.20;99.90
6210;DHT22;3138;52.550;13.148;2022-10-26T11:32:35;16.30;99.90
6210;DHT22;3138;52.550;13.148;2022-10-26T11:35:11;16.30;99.90
6210;DHT22;3138;52.550;13.148;2022-10-26T11:37:44;16.40;99.90
6210;DHT22;3138;52.550;13.148;2022-10-26T11:40:25;16.40;99.90
6210;DHT22;3138;52.550;13.148;2022-10-26T11:43:02;16.40;99.90
6210;DHT22;3138;52.550;13.148;2022-10-26T11:45:35;16.50;99.90
6210;DHT22;3138;52.550;13.148;2022-10-26T11:48:06;16.50;99.90
6210;DHT22;3138;52.550;13.148;2022-10-26T11:50:40;16.60;99.90
6210;DHT22;3138;52.550;13.148;2022-10-26T11:53:11;16.50;99.90
6210;DHT22;3138;52.550;13.148;2022-10-26T11:55:40;16.50;99.90
6210;DHT22;3138;52.550;13.148;2022-10-26T11:58:09;16.60;99.90
6210;DHT22;3138;52.550;13.148;2022-10-26T12:00:42;16.70;99.90
6210;DHT22;3138;52.550;13.148;2022-10-26T12:03:15;16.70;99.90
6210;DHT22;3138;52.550;13.148;2022-10-26T12:05:47;16.80;99.90
6210;DHT22;3138;52.550;13.148;2022-10-26T12:08:18;16.80;99.90
6210;DHT22;3138;52.550;13.148;2022-10-26T12:10:50;16.80;99.90
6210;DHT22;3138;52.550;13.148;2022-10-26T12:13:25;16.90;99.90
6210;DHT22;3138;52.550;13.148;2022-10-26T12:15:58;16.90;99.90
6210;DHT22;3138;52.550;13.148;2022-10-26T12:18:35;17.00;99.90
6210;DHT22;3138;52.550;13.148;2022-10-26T12:21:04;17.00;99.90
6210;DHT22;3138;52.550;13.148;2022-10-26T12:23:34;17.00;99.90
6210;DHT22;3138;52.550;13.148;2022-10-26T12:29:27;17.00;99.90
6210;DHT22;3138;52.550;13.148;2022-10-26T12:31:54;17.10;99.90
6210;DHT22;3138;52.550;13.148;2022-10-26T12:34:22;17.10;99.90
6210;DHT22;3138;52.550;13.148;2022-10-26T12:37:10;17.10;99.90
6210;DHT22;3138;52.550;13.148;2022-10-26T12:39:45;17.10;99.90
6210;DHT22;3138;52.550;13.148;2022-10-26T12:42:28;17.00;99.90
6210;DHT22;3138;52.550;13.148;2022-10-26T12:45:15;17.10;99.90
6210;DHT22;3138;52.550;13.148;2022-10-26T12:48:00;17.20;99.90
6210;DHT22;3138;52.550;13.148;2022-10-26T12:50:27;17.10;99.90
6210;DHT22;3138;52.550;13.148;2022-10-26T12:52:55;17.10;99.90
6210;DHT22;3138;52.550;13.148;2022-10-26T12:55:49;17.10;99.90
6210;DHT22;3138;52.550;13.148;2022-10-26T13:01:54;17.20;99.90
6210;DHT22;3138;52.550;13.148;2022-10-26T13:04:47;17.10;99.90
6210;DHT22;3138;52.550;13.148;2022-10-26T13:07:22;17.20;99.90
6210;DHT22;3138;52.550;13.148;2022-10-26T13:09:59;17.20;99.90
6210;DHT22;3138;52.550;13.148;2022-10-26T13:12:35;17.20;99.90
6210;DHT22;3138;52.550;13.148;2022-10-26T13:15:04;17.20;99.90
6210;DHT22;3138;52.550;13.148;2022-10-26T13:17:33;17.20;99.90
6210;DHT22;3138;52.550;13.148;2022-10-26T13:20:02;17.20;99.90
6210;DHT22;3138;52.550;13.148;2022-10-26T13:22:30;17.10;99.90
6210;DHT22;3138;52.550;13.148;2022-10-26T13:24:58;17.10;99.90
6210;DHT22;3138;52.550;13.148;2022-10-26T13:27:40;17.10;99.90
6210;DHT22;3138;52.550;13.148;2022-10-26T13:33:24;17.10;99.90
6210;DHT22;3138;52.550;13.148;2022-10-26T13:35:55;17.10;99.90
6210;DHT22;3138;52.550;13.148;2022-10-26T13:38:27;17.00;99.90
6210;DHT22;3138;52.550;13.148;2022-10-26T13:41:04;17.00;99.90
6210;DHT22;3138;52.550;13.148;2022-10-26T13:43:32;17.10;99.90
6210;DHT22;3138;52.550;13.148;2022-10-26T13:46:03;17.00;99.90
6210;DHT22;3138;52.550;13.148;2022-10-26T13:48:36;17.00;99.90
6210;DHT22;3138;52.550;13.148;2022-10-26T13:51:13;17.10;99.90
6210;DHT22;3138;52.550;13.148;2022-10-26T13:53:47;17.10;99.90
6210;DHT22;3138;52.550;13.148;2022-10-26T13:56:21;17.00;99.90
6210;DHT22;3138;52.550;13.148;2022-10-26T13:58:56;16.90;99.90
6210;DHT22;3138;52.550;13.148;2022-10-26T14:01:25;16.90;99.90
6210;DHT22;3138;52.550;13.148;2022-10-26T14:03:54;16.90;99.90
6210;DHT22;3138;52.550;13.148;2022-10-26T14:06:26;16.90;99.90
6210;DHT22;3138;52.550;13.148;2022-10-26T14:08:56;16.90;99.90
6210;DHT22;3138;52.550;13.148;2022-10-26T14:11:30;16.90;99.90
6210;DHT22;3138;52.550;13.148;2022-10-26T14:13:57;16.90;99.90
6210;DHT22;3138;52.550;13.148;2022-10-26T14:16:27;16.90;99.90
6210;DHT22;3138;52.550;13.148;2022-10-26T14:18:56;16.80;99.90
6210;DHT22;3138;52.550;13.148;2022-10-26T14:21:23;16.80;99.90
6210;DHT22;3138;52.550;13.148;2022-10-26T14:23:52;16.80;99.90
6210;DHT22;3138;52.550;13.148;2022-10-26T14:26:22;16.80;99.90
6210;DHT22;3138;52.550;13.148;2022-10-26T14:28:51;16.70;99.90
6210;DHT22;3138;52.550;13.148;2022-10-26T14:31:23;16.70;99.90
6210;DHT22;3138;52.550;13.148;2022-10-26T14:33:51;16.60;99.90
6210;DHT22;3138;52.550;13.148;2022-10-26T14:36:22;16.40;99.90
6210;DHT22;3138;52.550;13.148;2022-10-26T14:38:53;16.30;99.90
6210;DHT22;3138;52.550;13.148;2022-10-26T14:41:23;16.30;99.90
6210;DHT22;3138;52.550;13.148;2022-10-26T14:43:51;16.20;99.90
6210;DHT22;3138;52.550;13.148;2022-10-26T14:46:19;16.10;99.90
6210;DHT22;3138;52.550;13.148;2022-10-26T14:48:51;16.00;99.90
6210;DHT22;3138;52.550;13.148;2022-10-26T14:51:24;15.90;99.90
6210;DHT22;3138;52.550;13.148;2022-10-26T14:53:52;15.80;99.90
6210;DHT22;3138;52.550;13.148;2022-10-26T14:56:27;15.70;99.90
6210;DHT22;3138;52.550;13.148;2022-10-26T14:58:55;15.70;99.90
6210;DHT22;3138;52.550;13.148;2022-10-26T15:01:28;15.70;99.90
6210;DHT22;3138;52.550;13.148;2022-10-26T15:03:57;15.60;99.90
6210;DHT22;3138;52.550;13.148;2022-10-26T15:06:40;15.50;99.90
6210;DHT22;3138;52.550;13.148;2022-10-26T15:12:20;15.50;99.90
6210;DHT22;3138;52.550;13.148;2022-10-26T15:14:48;15.50;99.90
6210;DHT22;3138;52.550;13.148;2022-10-26T15:17:20;15.50;99.90
6210;DHT22;3138;52.550;13.148;2022-10-26T15:19:47;15.40;99.90
6210;DHT22;3138;52.550;13.148;2022-10-26T15:22:22;15.40;99.90
6210;DHT22;3138;52.550;13.148;2022-10-26T15:24:51;15.30;99.90
6210;DHT22;3138;52.550;13.148;2022-10-26T15:27:18;15.10;99.90
6210;DHT22;3138;52.550;13.148;2022-10-26T15:29:47;14.90;99.90
6210;DHT22;3138;52.550;13.148;2022-10-26T15:32:19;14.70;99.90
6210;DHT22;3138;52.550;13.148;2022-10-26T15:34:48;14.50;99.90
6210;DHT22;3138;52.550;13.148;2022-10-26T15:37:15;14.40;99.90
6210;DHT22;3138;52.550;13.148;2022-10-26T15:39:43;14.20;99.90
6210;DHT22;3138;52.550;13.148;2022-10-26T15:42:12;14.10;99.90
6210;DHT22;3138;52.550;13.148;2022-10-26T15:44:40;13.90;99.90
6210;DHT22;3138;52.550;13.148;2022-10-26T15:47:16;13.80;99.90
6210;DHT22;3138;52.550;13.148;2022-10-26T15:49:43;13.70;99.90
6210;DHT22;3138;52.550;13.148;2022-10-26T15:52:10;13.70;99.90
6210;DHT22;3138;52.550;13.148;2022-10-26T15:54:36;13.50;99.90
6210;DHT22;3138;52.550;13.148;2022-10-26T15:57:05;13.40;99.90
6210;DHT22;3138;52.550;13.148;2022-10-26T15:59:34;13.30;99.90
6210;DHT22;3138;52.550;13.148;2022-10-26T16:02:01;13.10;99.90
6210;DHT22;3138;52.550;13.148;2022-10-26T16:04:28;13.10;99.90
6210;DHT22;3138;52.550;13.148;2022-10-26T16:06:54;13.00;99.90
6210;DHT22;3138;52.550;13.148;2022-10-26T16:09:25;13.00;99.90
6210;DHT22;3138;52.550;13.148;2022-10-26T16:11:52;13.00;99.90
6210;DHT22;3138;52.550;13.148;2022-10-26T16:14:20;12.90;99.90
6210;DHT22;3138;52.550;13.148;2022-10-26T16:16:47;12.80;99.90
6210;DHT22;3138;52.550;13.148;2022-10-26T16:19:13;12.70;99.90
6210;DHT22;3138;52.550;13.148;2022-10-26T16:21:40;12.70;99.90
6210;DHT22;3138;52.550;13.148;2022-10-26T16:24:08;12.70;99.90
6210;DHT22;3138;52.550;13.148;2022-10-26T16:26:35;12.70;99.90
6210;DHT22;3138;52.550;13.148;2022-10-26T16:29:01;12.60;99.90
6210;DHT22;3138;52.550;13.148;2022-10-26T16:31:29;12.60;99.90
6210;DHT22;3138;52.550;13.148;2022-10-26T16:33:56;12.50;99.90